Time;durP1;ratioP1;P1;durP2;ratioP2;P2;SDS_P1;SDS_P2;PMS_P1;PMS_P2;Temp;Humidity;BMP_temperature;BMP_pressure;BME280_temperature;BME280_humidity;BME280_pressure;Samples;Min_cycle;Max_cycle;Signal;HPM_P1;HPM_P2
2022/07/27 00:01:21;;;;;;;8.10;4.70;;;;;;;;;;105027;1308;25181;-24
2022/07/27 00:03:50;;;;;;;6.70;4.10;;;;;;;;;;105274;1302;25043;-29
2022/07/27 00:06:18;;;;;;;5.50;4.20;;;;;;;;;;105167;1308;25238;-28
2022/07/27 00:08:47;;;;;;;3.40;3.00;;;;;;;;;;105300;1301;25238;-28
2022/07/27 00:11:16;;;;;;;4.10;3.60;;;;;;;;;;105004;1302;24552;-24
2022/07/27 00:13:45;;;;;;;5.30;3.10;;;;;;;;;;105110;1308;22522;-25
2022/07/27 00:16:14;;;;;;;4.30;3.40;;;;;;;;;;104995;1308;25158;-24
2022/07/27 00:18:43;;;;;;;5.10;2.90;;;;;;;;;;105139;1302;24369;-25
2022/07/27 00:21:12;;;;;;;4.40;3.30;;;;;;;;;;104988;1308;25211;-28
2022/07/27 00:23:41;;;;;;;10.60;3.50;;;;;;;;;;105043;1302;25209;-23
2022/07/27 00:26:10;;;;;;;5.00;3.60;;;;;;;;;;104971;1308;25200;-28
2022/07/27 00:28:38;;;;;;;12.70;3.00;;;;;;;;;;105123;1308;25202;-29
2022/07/27 00:31:07;;;;;;;2.90;2.60;;;;;;;;;;105159;1308;25217;-28
2022/07/27 00:33:36;;;;;;;5.60;2.90;;;;;;;;;;105146;1303;22545;-28
2022/07/27 00:36:05;;;;;;;4.40;3.70;;;;;;;;;;105143;1308;25267;-24
2022/07/27 00:38:34;;;;;;;5.00;2.50;;;;;;;;;;105064;1308;22526;-28
2022/07/27 00:41:03;;;;;;;3.20;2.90;;;;;;;;;;105165;1308;25223;-24
2022/07/27 00:43:32;;;;;;;4.40;2.70;;;;;;;;;;105112;1302;24436;-28
2022/07/27 00:46:01;;;;;;;2.90;2.60;;;;;;;;;;105144;1303;22519;-29
2022/07/27 00:48:30;;;;;;;4.00;2.60;;;;;;;;;;105131;1308;25232;-27
2022/07/27 00:50:59;;;;;;;5.60;2.50;;;;;;;;;;104983;1308;22515;-24
2022/07/27 00:53:27;;;;;;;16.20;2.80;;;;;;;;;;104823;1305;22529;-24
2022/07/27 00:55:56;;;;;;;3.50;3.00;;;;;;;;;;105324;1308;24558;-28
2022/07/27 00:58:25;;;;;;;3.50;2.90;;;;;;;;;;105135;1302;22524;-26
2022/07/27 01:00:54;;;;;;;5.60;2.40;;;;;;;;;;105117;1302;25232;-26
2022/07/27 01:03:23;;;;;;;3.40;2.20;;;;;;;;;;104945;1302;25229;-28
2022/07/27 01:05:52;;;;;;;8.30;2.40;;;;;;;;;;105155;1302;25204;-28
2022/07/27 01:08:21;;;;;;;4.60;3.00;;;;;;;;;;105246;1302;25238;-24
2022/07/27 01:10:49;;;;;;;3.00;2.20;;;;;;;;;;105175;1308;25229;-28
2022/07/27 01:13:18;;;;;;;2.30;2.00;;;;;;;;;;105217;1308;25229;-28
2022/07/27 01:15:47;;;;;;;2.60;2.10;;;;;;;;;;105061;1308;22695;-28
2022/07/27 01:18:19;;;;;;;7.10;2.00;;;;;;;;;;105021;1301;22513;-24
2022/07/27 01:20:48;;;;;;;3.60;3.20;;;;;;;;;;105273;1302;22530;-29
2022/07/27 01:23:17;;;;;;;4.00;3.00;;;;;;;;;;104952;1308;25270;-24
2022/07/27 01:25:46;;;;;;;4.50;2.60;;;;;;;;;;105099;1308;24580;-28
2022/07/27 01:28:15;;;;;;;2.90;2.20;;;;;;;;;;105203;1302;22535;-28
2022/07/27 01:30:44;;;;;;;2.40;1.80;;;;;;;;;;105176;1308;25334;-25
2022/07/27 01:33:12;;;;;;;2.70;2.00;;;;;;;;;;105030;1302;22508;-25
2022/07/27 01:35:41;;;;;;;3.70;2.50;;;;;;;;;;105064;1308;25132;-28
2022/07/27 01:38:10;;;;;;;3.80;2.50;;;;;;;;;;105059;1302;25305;-24
2022/07/27 01:40:39;;;;;;;3.20;1.90;;;;;;;;;;105172;1302;22527;-28
2022/07/27 01:43:08;;;;;;;1.80;1.60;;;;;;;;;;105239;1302;25276;-28
2022/07/27 01:45:38;;;;;;;2.50;2.10;;;;;;;;;;104928;1308;25208;-24
2022/07/27 01:48:06;;;;;;;3.50;1.60;;;;;;;;;;105053;1302;25254;-30
2022/07/27 01:50:35;;;;;;;2.30;2.00;;;;;;;;;;105249;1308;22515;-28
2022/07/27 01:53:04;;;;;;;2.20;1.70;;;;;;;;;;104997;1302;25169;-28
2022/07/27 01:55:33;;;;;;;4.30;2.20;;;;;;;;;;104990;1302;22959;-28
2022/07/27 01:58:05;;;;;;;3.70;2.10;;;;;;;;;;105128;1302;25468;-28
2022/07/27 02:00:35;;;;;;;3.80;2.30;;;;;;;;;;105095;1302;22539;-28
2022/07/27 02:03:04;;;;;;;3.50;2.70;;;;;;;;;;105157;1302;25248;-28
2022/07/27 02:05:33;;;;;;;3.30;2.90;;;;;;;;;;105097;1308;25392;-27
2022/07/27 02:08:02;;;;;;;7.00;2.90;;;;;;;;;;105278;1302;22614;-28
2022/07/27 02:10:32;;;;;;;3.60;2.70;;;;;;;;;;105170;1308;22538;-28
2022/07/27 02:13:01;;;;;;;5.70;2.40;;;;;;;;;;105269;1302;22529;-30
2022/07/27 02:15:30;;;;;;;2.70;2.50;;;;;;;;;;105003;1308;24926;-26
2022/07/27 02:17:59;;;;;;;3.40;2.50;;;;;;;;;;105172;1302;24837;-28
2022/07/27 02:20:29;;;;;;;2.80;2.40;;;;;;;;;;105061;1308;25861;-24
2022/07/27 02:22:58;;;;;;;2.30;2.00;;;;;;;;;;105045;1302;25363;-28
2022/07/27 02:25:27;;;;;;;2.60;2.30;;;;;;;;;;105189;1308;22526;-25
2022/07/27 02:27:56;;;;;;;3.40;2.00;;;;;;;;;;105234;1302;25197;-24
2022/07/27 02:30:26;;;;;;;2.20;1.70;;;;;;;;;;105000;1308;25330;-27
2022/07/27 02:32:55;;;;;;;5.60;2.10;;;;;;;;;;105055;1302;25343;-28
2022/07/27 02:35:25;;;;;;;2.20;2.00;;;;;;;;;;105012;1302;25241;-24
2022/07/27 02:37:54;;;;;;;2.90;2.70;;;;;;;;;;105230;1302;25216;-25
2022/07/27 02:40:22;;;;;;;7.70;3.60;;;;;;;;;;105048;1302;25242;-24
2022/07/27 02:42:51;;;;;;;5.10;2.30;;;;;;;;;;105083;1302;25254;-28
2022/07/27 02:45:20;;;;;;;3.00;2.60;;;;;;;;;;105227;1308;25392;-25
2022/07/27 02:47:49;;;;;;;3.20;2.50;;;;;;;;;;105128;1302;22527;-24
2022/07/27 02:50:18;;;;;;;2.60;2.20;;;;;;;;;;104966;1308;24916;-24
2022/07/27 02:52:47;;;;;;;3.30;2.40;;;;;;;;;;104953;1302;22507;-24
2022/07/27 02:55:15;;;;;;;2.10;1.90;;;;;;;;;;105145;1308;24544;-26
2022/07/27 02:57:44;;;;;;;2.60;1.90;;;;;;;;;;105202;1302;25344;-26
2022/07/27 03:00:14;;;;;;;9.00;2.80;;;;;;;;;;104984;1301;25254;-28
2022/07/27 03:02:42;;;;;;;9.90;1.70;;;;;;;;;;104983;1302;25238;-24
2022/07/27 03:05:11;;;;;;;3.40;2.30;;;;;;;;;;105115;1302;25279;-26
2022/07/27 03:07:40;;;;;;;2.30;2.00;;;;;;;;;;105106;1305;22503;-26
2022/07/27 03:10:09;;;;;;;2.70;2.10;;;;;;;;;;105221;1308;25284;-28
2022/07/27 03:12:38;;;;;;;2.60;1.70;;;;;;;;;;105086;1308;25353;-24
2022/07/27 03:15:07;;;;;;;9.70;3.60;;;;;;;;;;105112;1308;25263;-23
2022/07/27 03:17:36;;;;;;;2.40;2.20;;;;;;;;;;105064;1308;25458;-25
2022/07/27 03:20:05;;;;;;;2.90;2.40;;;;;;;;;;105114;1308;25264;-24
2022/07/27 03:22:34;;;;;;;3.10;2.50;;;;;;;;;;105130;1302;25213;-29
2022/07/27 03:25:03;;;;;;;3.90;2.00;;;;;;;;;;105020;1302;22557;-24
2022/07/27 03:27:33;;;;;;;3.10;2.50;;;;;;;;;;104998;1302;25363;-24
2022/07/27 03:30:02;;;;;;;9.30;3.00;;;;;;;;;;104973;1308;25253;-25
2022/07/27 03:32:31;;;;;;;4.70;2.70;;;;;;;;;;104912;1308;25188;-24
2022/07/27 03:35:00;;;;;;;6.90;3.50;;;;;;;;;;105090;1308;25250;-28
2022/07/27 03:37:28;;;;;;;9.50;4.00;;;;;;;;;;105105;1308;25229;-27
2022/07/27 03:39:57;;;;;;;4.10;1.90;;;;;;;;;;105133;1301;22506;-28
2022/07/27 03:42:26;;;;;;;4.60;2.40;;;;;;;;;;105112;1308;25316;-28
2022/07/27 03:44:55;;;;;;;3.20;2.40;;;;;;;;;;105264;1302;25401;-28
2022/07/27 03:47:24;;;;;;;2.60;2.30;;;;;;;;;;105138;1308;25245;-28
2022/07/27 03:49:53;;;;;;;4.10;2.00;;;;;;;;;;105088;1302;25345;-27
2022/07/27 03:52:22;;;;;;;7.10;3.00;;;;;;;;;;105043;1308;24445;-28
2022/07/27 03:54:51;;;;;;;2.50;1.80;;;;;;;;;;105031;1302;22516;-24
2022/07/27 03:57:19;;;;;;;2.80;2.30;;;;;;;;;;104973;1308;25212;-24
2022/07/27 03:59:48;;;;;;;4.30;2.60;;;;;;;;;;105042;1302;22645;-24
2022/07/27 04:02:17;;;;;;;3.60;3.10;;;;;;;;;;105048;1308;25459;-29
2022/07/27 04:04:46;;;;;;;3.80;1.70;;;;;;;;;;105119;1302;24532;-30
2022/07/27 04:07:15;;;;;;;2.40;2.00;;;;;;;;;;105090;1302;25282;-25
2022/07/27 04:09:43;;;;;;;5.00;3.00;;;;;;;;;;105049;1302;25306;-28
2022/07/27 04:12:12;;;;;;;3.30;2.80;;;;;;;;;;104995;1302;25354;-24
2022/07/27 04:14:41;;;;;;;1.70;1.50;;;;;;;;;;105157;1302;25210;-24
2022/07/27 04:17:10;;;;;;;3.50;2.70;;;;;;;;;;105287;1308;22543;-26
2022/07/27 04:19:39;;;;;;;5.60;1.50;;;;;;;;;;105087;1308;25350;-28
2022/07/27 04:22:07;;;;;;;2.10;1.90;;;;;;;;;;105127;1308;25239;-28
2022/07/27 04:24:36;;;;;;;2.90;2.30;;;;;;;;;;105311;1302;22515;-25
2022/07/27 04:27:05;;;;;;;3.50;2.80;;;;;;;;;;104981;1308;22536;-25
2022/07/27 04:29:34;;;;;;;7.60;3.50;;;;;;;;;;105005;1302;25247;-23
2022/07/27 04:32:03;;;;;;;4.50;3.10;;;;;;;;;;105036;1302;25439;-24
2022/07/27 04:34:32;;;;;;;3.10;2.00;;;;;;;;;;105075;1308;25246;-28
2022/07/27 04:37:01;;;;;;;8.00;2.10;;;;;;;;;;105059;1308;25232;-27
2022/07/27 04:39:29;;;;;;;3.40;3.00;;;;;;;;;;105271;1302;25204;-24
2022/07/27 04:41:58;;;;;;;3.30;2.80;;;;;;;;;;104472;1308;1003462;-24
2022/07/27 04:44:27;;;;;;;2.50;2.30;;;;;;;;;;104991;1302;25212;-26
2022/07/27 04:46:56;;;;;;;6.50;2.60;;;;;;;;;;105110;1308;24813;-29
2022/07/27 04:49:25;;;;;;;3.20;2.10;;;;;;;;;;104983;1302;24961;-25
2022/07/27 04:51:54;;;;;;;2.70;2.20;;;;;;;;;;105189;1308;24554;-28
2022/07/27 04:54:22;;;;;;;2.90;2.70;;;;;;;;;;105055;1302;22523;-24
2022/07/27 04:56:51;;;;;;;4.40;3.50;;;;;;;;;;105164;1308;25203;-25
2022/07/27 04:59:20;;;;;;;2.60;2.30;;;;;;;;;;105243;1307;22527;-24
2022/07/27 05:01:49;;;;;;;2.40;2.00;;;;;;;;;;105098;1302;24794;-29
2022/07/27 05:04:18;;;;;;;2.30;2.10;;;;;;;;;;105073;1302;25200;-29
2022/07/27 05:06:46;;;;;;;3.30;2.60;;;;;;;;;;105021;1308;25204;-28
2022/07/27 05:09:15;;;;;;;5.60;2.20;;;;;;;;;;105196;1302;25379;-28
2022/07/27 05:11:45;;;;;;;4.40;2.10;;;;;;;;;;105240;1308;22445;-27
2022/07/27 05:14:14;;;;;;;3.40;2.50;;;;;;;;;;105081;1302;25315;-27
2022/07/27 05:16:42;;;;;;;5.50;2.30;;;;;;;;;;105236;1292;22537;-28
2022/07/27 05:19:11;;;;;;;1.80;1.50;;;;;;;;;;105064;1302;22493;-28
2022/07/27 05:21:40;;;;;;;2.20;1.40;;;;;;;;;;105040;1308;25186;-28
2022/07/27 05:24:09;;;;;;;2.80;2.10;;;;;;;;;;105115;1303;22532;-29
2022/07/27 05:26:38;;;;;;;5.70;2.20;;;;;;;;;;105140;1308;25184;-26
2022/07/27 05:29:07;;;;;;;2.30;2.10;;;;;;;;;;105109;1302;22512;-32
2022/07/27 05:31:35;;;;;;;1.90;1.40;;;;;;;;;;105105;1308;25236;-28
2022/07/27 05:34:04;;;;;;;3.30;2.10;;;;;;;;;;105127;1302;22504;-30
2022/07/27 05:36:33;;;;;;;2.90;2.30;;;;;;;;;;105061;1308;25366;-24
2022/07/27 05:39:02;;;;;;;3.50;1.70;;;;;;;;;;104991;1302;25232;-29
2022/07/27 05:41:31;;;;;;;3.50;2.70;;;;;;;;;;105146;1308;22619;-25
2022/07/27 05:43:59;;;;;;;5.60;3.60;;;;;;;;;;104805;1308;22563;-28
2022/07/27 05:46:28;;;;;;;4.70;3.80;;;;;;;;;;105089;1308;25343;-30
2022/07/27 05:48:58;;;;;;;3.60;2.90;;;;;;;;;;104879;1308;24455;-25
2022/07/27 05:51:27;;;;;;;4.80;4.40;;;;;;;;;;104822;1308;352681;-28
2022/07/27 05:53:56;;;;;;;4.00;3.10;;;;;;;;;;105067;1308;24432;-30
2022/07/27 05:56:26;;;;;;;4.80;2.50;;;;;;;;;;104979;1302;25204;-30
2022/07/27 05:58:55;;;;;;;4.10;2.30;;;;;;;;;;105028;1302;25382;-24
2022/07/27 06:01:24;;;;;;;3.80;2.20;;;;;;;;;;105013;1308;25187;-24
2022/07/27 06:03:52;;;;;;;2.60;2.40;;;;;;;;;;105119;1302;22526;-25
2022/07/27 06:08:54;;;;;;;4.60;2.30;;;;;;;;;;105101;1302;25241;-26
2022/07/27 06:11:22;;;;;;;3.40;2.30;;;;;;;;;;105202;1308;25417;-28
2022/07/27 06:13:51;;;;;;;3.30;1.80;;;;;;;;;;105109;1300;25285;-24
2022/07/27 06:16:21;;;;;;;8.50;1.60;;;;;;;;;;105092;1308;25229;-24
2022/07/27 06:18:50;;;;;;;3.30;2.50;;;;;;;;;;105233;1302;24562;-26
2022/07/27 06:21:19;;;;;;;2.60;2.10;;;;;;;;;;105159;1308;22519;-25
2022/07/27 06:23:48;;;;;;;2.10;1.70;;;;;;;;;;105124;1302;24427;-25
2022/07/27 06:26:17;;;;;;;4.10;1.50;;;;;;;;;;105186;1308;23918;-25
2022/07/27 06:28:46;;;;;;;1.80;1.60;;;;;;;;;;105118;1302;25232;-25
2022/07/27 06:31:15;;;;;;;6.10;1.50;;;;;;;;;;105035;1308;22516;-29
2022/07/27 06:33:44;;;;;;;2.20;1.50;;;;;;;;;;105138;1302;24844;-29
2022/07/27 06:36:12;;;;;;;2.00;1.20;;;;;;;;;;105066;1308;25241;-25
2022/07/27 06:38:41;;;;;;;3.60;1.90;;;;;;;;;;105156;1302;24894;-25
2022/07/27 06:41:10;;;;;;;3.20;1.50;;;;;;;;;;105013;1308;22529;-25
2022/07/27 06:43:39;;;;;;;1.70;1.00;;;;;;;;;;105117;1302;24876;-25
2022/07/27 06:46:11;;;;;;;2.10;1.50;;;;;;;;;;105072;1308;22444;-25
2022/07/27 06:48:40;;;;;;;3.20;1.60;;;;;;;;;;105232;1302;22638;-29
2022/07/27 06:51:09;;;;;;;4.80;1.50;;;;;;;;;;105019;1308;22502;-25
2022/07/27 06:53:37;;;;;;;3.20;2.30;;;;;;;;;;105061;1308;22539;-28
2022/07/27 06:56:07;;;;;;;2.70;1.50;;;;;;;;;;105203;1308;24798;-29
2022/07/27 06:58:36;;;;;;;2.60;1.50;;;;;;;;;;105164;1302;22611;-24
2022/07/27 07:01:05;;;;;;;2.60;1.90;;;;;;;;;;105128;1308;25200;-25
2022/07/27 07:03:34;;;;;;;2.20;1.20;;;;;;;;;;104997;1302;25197;-28
2022/07/27 07:06:03;;;;;;;1.90;1.20;;;;;;;;;;104993;1308;22530;-31
2022/07/27 07:08:32;;;;;;;1.70;0.90;;;;;;;;;;104963;1302;22520;-31
2022/07/27 07:11:01;;;;;;;3.50;1.40;;;;;;;;;;105201;1308;25241;-25
2022/07/27 07:13:30;;;;;;;1.90;1.20;;;;;;;;;;105171;1302;25382;-25
2022/07/27 07:15:58;;;;;;;2.60;1.20;;;;;;;;;;105103;1308;24196;-29
2022/07/27 07:18:27;;;;;;;10.70;1.70;;;;;;;;;;105185;1302;24365;-24
2022/07/27 07:20:56;;;;;;;7.60;1.40;;;;;;;;;;104977;1301;25232;-29
2022/07/27 07:23:25;;;;;;;16.00;5.10;;;;;;;;;;105103;1303;22540;-26
2022/07/27 07:25:54;;;;;;;9.20;3.80;;;;;;;;;;105123;1308;22744;-30
2022/07/27 07:28:23;;;;;;;25.80;6.50;;;;;;;;;;105111;1302;25209;-28
2022/07/27 07:30:51;;;;;;;24.40;7.50;;;;;;;;;;104821;1308;25286;-25
2022/07/27 07:33:20;;;;;;;13.60;6.30;;;;;;;;;;105011;1308;25229;-25
2022/07/27 07:35:49;;;;;;;24.50;9.60;;;;;;;;;;105022;1308;22622;-25
2022/07/27 07:38:18;;;;;;;2.90;1.90;;;;;;;;;;105021;1308;25453;-23
2022/07/27 07:40:47;;;;;;;2.80;1.70;;;;;;;;;;105095;1302;25356;-31
2022/07/27 07:43:16;;;;;;;1.00;0.80;;;;;;;;;;105037;1301;22523;-29
2022/07/27 07:45:45;;;;;;;1.90;1.20;;;;;;;;;;105192;1308;25392;-26
2022/07/27 07:48:14;;;;;;;4.50;2.90;;;;;;;;;;105092;1302;25242;-30
2022/07/27 07:50:43;;;;;;;14.70;3.90;;;;;;;;;;105170;1302;22526;-27
2022/07/27 07:53:13;;;;;;;8.40;3.10;;;;;;;;;;105167;1302;22533;-30
2022/07/27 07:55:41;;;;;;;1.60;1.10;;;;;;;;;;105104;1302;22508;-26
2022/07/27 07:58:10;;;;;;;5.70;1.00;;;;;;;;;;105043;1300;25193;-26
2022/07/27 08:00:40;;;;;;;33.20;11.40;;;;;;;;;;105130;1308;25197;-27
2022/07/27 08:03:09;;;;;;;14.60;6.90;;;;;;;;;;105104;1308;25233;-27
2022/07/27 08:05:38;;;;;;;4.10;2.80;;;;;;;;;;105036;1308;25209;-27
2022/07/27 08:08:07;;;;;;;4.70;2.10;;;;;;;;;;105161;1296;22529;-31
2022/07/27 08:10:36;;;;;;;17.30;2.10;;;;;;;;;;104978;1302;24903;-26
2022/07/27 08:13:05;;;;;;;1.00;0.90;;;;;;;;;;105110;1307;22516;-31
2022/07/27 08:15:34;;;;;;;1.60;1.00;;;;;;;;;;105149;1302;22517;-27
2022/07/27 08:18:03;;;;;;;0.90;0.60;;;;;;;;;;105230;1301;25229;-25
2022/07/27 08:20:32;;;;;;;4.80;1.00;;;;;;;;;;105079;1308;22541;-26
2022/07/27 08:23:01;;;;;;;2.50;1.00;;;;;;;;;;104985;1302;25212;-25
2022/07/27 08:25:30;;;;;;;2.40;0.80;;;;;;;;;;104990;1308;22536;-27
2022/07/27 08:27:59;;;;;;;5.90;2.90;;;;;;;;;;105087;1308;25232;-25
2022/07/27 08:30:28;;;;;;;5.30;1.70;;;;;;;;;;105040;1308;25369;-27
2022/07/27 08:32:58;;;;;;;5.10;1.40;;;;;;;;;;105169;1308;25158;-29
2022/07/27 08:35:27;;;;;;;3.70;0.90;;;;;;;;;;105221;1302;22501;-25
2022/07/27 08:37:56;;;;;;;6.00;3.80;;;;;;;;;;105096;1302;25353;-28
2022/07/27 08:40:25;;;;;;;3.00;2.10;;;;;;;;;;105110;1308;25519;-25
2022/07/27 08:42:54;;;;;;;1.10;0.50;;;;;;;;;;105140;1302;24692;-26
2022/07/27 08:45:23;;;;;;;1.50;0.70;;;;;;;;;;105002;1308;25344;-30
2022/07/27 08:48:01;;;;;;;1.10;0.40;;;;;;;;;;105124;1302;25225;-24
2022/07/27 08:50:39;;;;;;;1.00;0.50;;;;;;;;;;105062;1308;25279;-26
2022/07/27 08:53:17;;;;;;;1.10;0.60;;;;;;;;;;105032;1302;25226;-26
2022/07/27 08:55:56;;;;;;;0.60;0.30;;;;;;;;;;104984;1308;24001;-26
2022/07/27 08:58:33;;;;;;;0.50;0.50;;;;;;;;;;104941;1308;24414;-31
2022/07/27 09:01:11;;;;;;;0.40;0.40;;;;;;;;;;105170;1302;25226;-29
2022/07/27 09:03:48;;;;;;;2.00;0.60;;;;;;;;;;104817;1308;25244;-25
2022/07/27 09:06:29;;;;;;;2.40;0.60;;;;;;;;;;105018;1308;25313;-28
2022/07/27 09:09:06;;;;;;;1.10;0.60;;;;;;;;;;105082;1308;22520;-29
2022/07/27 09:11:45;;;;;;;0.50;0.50;;;;;;;;;;105089;1308;25229;-25
2022/07/27 09:14:13;;;;;;;1.00;0.60;;;;;;;;;;105012;1302;25201;-29
2022/07/27 09:16:42;;;;;;;1.80;0.50;;;;;;;;;;105098;1308;25232;-25
2022/07/27 09:19:13;;;;;;;10.80;0.60;;;;;;;;;;104944;1302;25311;-28
2022/07/27 09:21:42;;;;;;;1.30;0.40;;;;;;;;;;104954;1302;22526;-25
2022/07/27 09:24:12;;;;;;;0.70;0.40;;;;;;;;;;105276;1302;25264;-25
2022/07/27 09:26:41;;;;;;;0.90;0.20;;;;;;;;;;105017;1308;25216;-25
2022/07/27 09:29:11;;;;;;;0.40;0.30;;;;;;;;;;105182;1302;24535;-26
2022/07/27 09:31:40;;;;;;;0.40;0.30;;;;;;;;;;105024;1303;25335;-28
2022/07/27 09:34:09;;;;;;;0.90;0.50;;;;;;;;;;105028;1302;22533;-25
2022/07/27 09:36:41;;;;;;;3.20;0.40;;;;;;;;;;105228;1308;24462;-24
2022/07/27 09:39:11;;;;;;;0.30;0.30;;;;;;;;;;105073;1308;25201;-24
2022/07/27 09:41:41;;;;;;;1.80;0.50;;;;;;;;;;105209;1302;25232;-24
2022/07/27 09:44:10;;;;;;;2.80;0.70;;;;;;;;;;105071;1302;24519;-24
2022/07/27 09:46:39;;;;;;;3.00;0.30;;;;;;;;;;105089;1308;25152;-29
2022/07/27 09:49:12;;;;;;;0.50;0.40;;;;;;;;;;105235;1302;25349;-29
2022/07/27 09:51:45;;;;;;;2.30;1.20;;;;;;;;;;105216;1302;22532;-25
2022/07/27 09:54:14;;;;;;;0.90;0.50;;;;;;;;;;105117;1302;22533;-25
2022/07/27 09:56:42;;;;;;;1.10;0.30;;;;;;;;;;105284;1308;25236;-28
2022/07/27 09:59:16;;;;;;;1.50;0.50;;;;;;;;;;105239;1302;25201;-25
2022/07/27 10:01:45;;;;;;;0.50;0.40;;;;;;;;;;105055;1302;22535;-25
2022/07/27 10:04:13;;;;;;;0.60;0.50;;;;;;;;;;105096;1302;25276;-29
2022/07/27 10:06:42;;;;;;;0.50;0.30;;;;;;;;;;105134;1308;25155;-24
2022/07/27 10:09:11;;;;;;;0.40;0.40;;;;;;;;;;104916;1305;22523;-25
2022/07/27 10:11:40;;;;;;;0.50;0.40;;;;;;;;;;105036;1308;25253;-29
2022/07/27 10:14:09;;;;;;;1.60;0.40;;;;;;;;;;105130;1301;25213;-29
2022/07/27 10:16:38;;;;;;;0.90;0.50;;;;;;;;;;105104;1308;25330;-29
2022/07/27 10:19:11;;;;;;;1.30;0.40;;;;;;;;;;105110;1302;25415;-29
2022/07/27 10:21:45;;;;;;;0.30;0.10;;;;;;;;;;105145;1302;22447;-24
2022/07/27 10:24:17;;;;;;;2.50;0.30;;;;;;;;;;105016;1302;25353;-30
2022/07/27 10:26:46;;;;;;;0.80;0.50;;;;;;;;;;105172;1305;22605;-25
2022/07/27 10:29:16;;;;;;;0.50;0.30;;;;;;;;;;104913;1305;24900;-25
2022/07/27 10:31:49;;;;;;;0.50;0.20;;;;;;;;;;104982;1302;25299;-28
2022/07/27 10:34:21;;;;;;;1.30;0.50;;;;;;;;;;105029;1302;25216;-24
2022/07/27 10:36:51;;;;;;;1.50;0.40;;;;;;;;;;105056;1302;22494;-28
2022/07/27 10:39:23;;;;;;;0.60;0.20;;;;;;;;;;104866;1305;25280;-28
2022/07/27 10:42:04;;;;;;;4.60;0.50;;;;;;;;;;105176;1302;25372;-24
2022/07/27 10:44:45;;;;;;;0.40;0.20;;;;;;;;;;105208;1305;22532;-24
2022/07/27 10:47:30;;;;;;;1.40;0.20;;;;;;;;;;105115;1308;25283;-25
2022/07/27 10:50:02;;;;;;;0.50;0.40;;;;;;;;;;105164;1308;22541;-28
2022/07/27 10:52:34;;;;;;;0.80;0.30;;;;;;;;;;105092;1303;25247;-24
2022/07/27 10:55:04;;;;;;;0.30;0.30;;;;;;;;;;105151;1302;24490;-28
2022/07/27 10:57:35;;;;;;;1.80;0.60;;;;;;;;;;105039;1302;25206;-25
2022/07/27 11:00:08;;;;;;;0.70;0.40;;;;;;;;;;105314;1302;22525;-29
2022/07/27 11:02:37;;;;;;;0.50;0.20;;;;;;;;;;105063;1302;25255;-25
2022/07/27 11:05:07;;;;;;;1.30;0.40;;;;;;;;;;105027;1308;25283;-31
2022/07/27 11:07:37;;;;;;;0.60;0.40;;;;;;;;;;105103;1308;25229;-25
2022/07/27 11:10:06;;;;;;;0.20;0.10;;;;;;;;;;105133;1308;22524;-29
2022/07/27 11:12:43;;;;;;;1.70;0.40;;;;;;;;;;105028;1308;24537;-29
2022/07/27 11:15:13;;;;;;;0.30;0.30;;;;;;;;;;105012;1305;22529;-28
2022/07/27 11:17:46;;;;;;;0.40;0.30;;;;;;;;;;105139;1302;22507;-29
2022/07/27 11:20:14;;;;;;;2.50;0.50;;;;;;;;;;105062;1302;22529;-24
2022/07/27 11:22:43;;;;;;;1.50;0.40;;;;;;;;;;104979;1305;22527;-30
2022/07/27 11:25:12;;;;;;;1.30;0.60;;;;;;;;;;105100;1303;22535;-27
2022/07/27 11:27:44;;;;;;;0.30;0.30;;;;;;;;;;105106;1308;22534;-28
2022/07/27 11:30:17;;;;;;;0.10;0.10;;;;;;;;;;105062;1302;25267;-25
2022/07/27 11:32:45;;;;;;;2.10;0.40;;;;;;;;;;105120;1308;22527;-29
2022/07/27 11:35:15;;;;;;;0.90;0.40;;;;;;;;;;105119;1308;25231;-25
2022/07/27 11:37:47;;;;;;;1.30;0.50;;;;;;;;;;105201;1302;22519;-28
2022/07/27 11:40:16;;;;;;;0.60;0.40;;;;;;;;;;105147;1302;25244;-29
2022/07/27 11:42:53;;;;;;;1.90;0.60;;;;;;;;;;105211;1302;24522;-25
2022/07/27 11:45:25;;;;;;;0.40;0.30;;;;;;;;;;105095;1308;26583;-25
2022/07/27 11:47:55;;;;;;;0.50;0.50;;;;;;;;;;105051;1303;25350;-28
2022/07/27 11:50:24;;;;;;;2.60;0.40;;;;;;;;;;105251;1306;22537;-24
2022/07/27 11:52:54;;;;;;;0.70;0.30;;;;;;;;;;105166;1306;22554;-31
2022/07/27 11:55:23;;;;;;;2.20;0.80;;;;;;;;;;104950;1302;22561;-27
2022/07/27 11:57:52;;;;;;;0.70;0.40;;;;;;;;;;105002;1301;25255;-25
2022/07/27 12:00:21;;;;;;;1.50;0.50;;;;;;;;;;104988;1308;25218;-24
2022/07/27 12:02:50;;;;;;;2.00;0.40;;;;;;;;;;104955;1306;25244;-24
2022/07/27 12:05:18;;;;;;;2.80;0.70;;;;;;;;;;105143;1308;25203;-27
2022/07/27 12:07:47;;;;;;;1.50;0.40;;;;;;;;;;105037;1302;22533;-28
2022/07/27 12:10:16;;;;;;;1.00;0.60;;;;;;;;;;105070;1308;24468;-30
2022/07/27 12:12:47;;;;;;;1.90;0.50;;;;;;;;;;104990;1302;24518;-25
2022/07/27 12:15:16;;;;;;;1.30;0.30;;;;;;;;;;105063;1302;22523;-25
2022/07/27 12:17:46;;;;;;;0.20;0.20;;;;;;;;;;105099;1302;24420;-29
2022/07/27 12:20:16;;;;;;;1.10;0.50;;;;;;;;;;104928;1302;25241;-29
2022/07/27 12:22:46;;;;;;;0.90;0.20;;;;;;;;;;105167;1302;25295;-30
2022/07/27 12:25:15;;;;;;;3.30;0.60;;;;;;;;;;105151;1308;22506;-30
2022/07/27 12:27:47;;;;;;;0.40;0.40;;;;;;;;;;105055;1302;25226;-29
2022/07/27 12:30:16;;;;;;;2.60;0.70;;;;;;;;;;105068;1302;22565;-29
2022/07/27 12:32:53;;;;;;;1.50;0.50;;;;;;;;;;104959;1302;24765;-24
2022/07/27 12:35:22;;;;;;;0.90;0.70;;;;;;;;;;105165;1308;22527;-24
2022/07/27 12:37:55;;;;;;;2.20;0.60;;;;;;;;;;105125;1306;25233;-24
2022/07/27 12:40:24;;;;;;;3.20;0.40;;;;;;;;;;105095;1302;22553;-27
2022/07/27 12:42:54;;;;;;;2.90;0.70;;;;;;;;;;105067;1302;22621;-28
2022/07/27 12:45:23;;;;;;;1.10;0.80;;;;;;;;;;105057;1308;22516;-27
2022/07/27 12:47:51;;;;;;;3.30;1.40;;;;;;;;;;105267;1303;22522;-26
2022/07/27 12:50:24;;;;;;;1.50;0.80;;;;;;;;;;105145;1308;25207;-25
2022/07/27 12:52:53;;;;;;;1.90;0.80;;;;;;;;;;105004;1305;22543;-28
2022/07/27 12:55:22;;;;;;;0.70;0.50;;;;;;;;;;105052;1308;25203;-26
2022/07/27 12:57:53;;;;;;;1.90;1.00;;;;;;;;;;104987;1302;22529;-29
2022/07/27 13:00:23;;;;;;;7.50;0.90;;;;;;;;;;105010;1302;25204;-29
2022/07/27 13:02:52;;;;;;;1.20;0.90;;;;;;;;;;105059;1302;25331;-29
2022/07/27 13:05:20;;;;;;;1.00;0.80;;;;;;;;;;105103;1308;25350;-28
2022/07/27 13:07:49;;;;;;;1.80;0.80;;;;;;;;;;105201;1308;22544;-24
2022/07/27 13:10:18;;;;;;;6.70;0.80;;;;;;;;;;105232;1308;25204;-29
2022/07/27 13:12:47;;;;;;;1.30;0.90;;;;;;;;;;105046;1303;25203;-29
2022/07/27 13:15:16;;;;;;;1.30;1.00;;;;;;;;;;105018;1308;25283;-25
2022/07/27 13:17:45;;;;;;;4.50;1.30;;;;;;;;;;105041;1302;22529;-23
2022/07/27 13:20:15;;;;;;;1.80;0.90;;;;;;;;;;105093;1308;25290;-24
2022/07/27 13:22:44;;;;;;;0.70;0.60;;;;;;;;;;105064;1308;22539;-30
2022/07/27 13:25:13;;;;;;;1.50;0.90;;;;;;;;;;105123;1308;25350;-29
2022/07/27 13:27:51;;;;;;;1.20;1.00;;;;;;;;;;105074;1308;24549;-27
2022/07/27 13:30:28;;;;;;;1.50;0.70;;;;;;;;;;105211;1308;22509;-30
2022/07/27 13:32:59;;;;;;;1.30;0.80;;;;;;;;;;105017;1308;25259;-26
2022/07/27 13:35:28;;;;;;;2.40;1.30;;;;;;;;;;105160;1305;25254;-29
2022/07/27 13:37:57;;;;;;;2.00;1.20;;;;;;;;;;105248;1302;25232;-25
2022/07/27 13:40:26;;;;;;;3.00;1.10;;;;;;;;;;104956;1305;22529;-25
2022/07/27 13:42:55;;;;;;;2.10;1.10;;;;;;;;;;105050;1306;24272;-24
2022/07/27 13:45:24;;;;;;;1.60;0.50;;;;;;;;;;105230;1308;24371;-28
2022/07/27 13:47:53;;;;;;;2.10;0.80;;;;;;;;;;105066;1308;24803;-24
2022/07/27 13:50:22;;;;;;;2.30;0.90;;;;;;;;;;105043;1308;24812;-30
2022/07/27 13:52:51;;;;;;;2.70;1.00;;;;;;;;;;104905;1308;449035;-30
2022/07/27 13:55:20;;;;;;;1.50;0.80;;;;;;;;;;105126;1308;25264;-28
2022/07/27 13:57:48;;;;;;;1.10;0.50;;;;;;;;;;105053;1308;22551;-24
2022/07/27 14:00:17;;;;;;;1.40;0.80;;;;;;;;;;105077;1308;25334;-30
2022/07/27 14:02:46;;;;;;;2.30;1.00;;;;;;;;;;105036;1308;25203;-29
2022/07/27 14:05:24;;;;;;;1.90;0.90;;;;;;;;;;105210;1308;24821;-25
2022/07/27 14:08:02;;;;;;;2.50;1.00;;;;;;;;;;105041;1308;25335;-25
2022/07/27 14:10:41;;;;;;;1.20;1.00;;;;;;;;;;104846;1302;25236;-28
2022/07/27 14:13:20;;;;;;;2.60;1.10;;;;;;;;;;105052;1308;26505;-28
2022/07/27 14:15:49;;;;;;;1.90;0.90;;;;;;;;;;104984;1308;25304;-28
2022/07/27 14:18:18;;;;;;;6.10;0.80;;;;;;;;;;105150;1308;25898;-25
2022/07/27 14:20:48;;;;;;;3.10;0.70;;;;;;;;;;105018;1308;25340;-25
2022/07/27 14:23:17;;;;;;;1.40;0.60;;;;;;;;;;105047;1305;25386;-26
2022/07/27 14:25:46;;;;;;;1.90;0.70;;;;;;;;;;105254;1303;25370;-29
2022/07/27 14:28:15;;;;;;;3.10;0.90;;;;;;;;;;105139;1302;25207;-30
2022/07/27 14:30:44;;;;;;;2.20;0.60;;;;;;;;;;104811;1308;24406;-26
2022/07/27 14:33:13;;;;;;;1.00;0.70;;;;;;;;;;105077;1302;24717;-25
2022/07/27 14:35:42;;;;;;;12.30;0.90;;;;;;;;;;105108;1308;25445;-24
2022/07/27 14:38:11;;;;;;;1.30;0.70;;;;;;;;;;105316;1306;22523;-29
2022/07/27 14:40:40;;;;;;;1.20;0.90;;;;;;;;;;105057;1308;25519;-29
2022/07/27 14:43:08;;;;;;;1.10;0.50;;;;;;;;;;105221;1306;22515;-29
2022/07/27 14:45:37;;;;;;;1.70;0.50;;;;;;;;;;105001;1306;25287;-28